createdAt,value
2018-10-02T00:02:24.330Z,10.20
2018-10-02T00:04:52.894Z,10.20
2018-10-02T00:07:21.275Z,10.20
2018-10-02T00:09:50.857Z,10.10
2018-10-02T00:12:24.589Z,10.00
2018-10-02T00:14:53.018Z,10.00
2018-10-02T00:17:22.478Z,9.90
2018-10-02T00:19:50.814Z,9.80
2018-10-02T00:22:19.217Z,9.80
2018-10-02T00:24:47.552Z,9.80
2018-10-02T00:27:16.383Z,9.80
2018-10-02T00:29:44.973Z,9.80
2018-10-02T00:32:16.353Z,9.90
2018-10-02T00:34:44.865Z,9.90
2018-10-02T00:37:13.267Z,9.90
2018-10-02T00:39:41.662Z,9.90
2018-10-02T00:42:10.027Z,9.90
2018-10-02T00:44:38.373Z,9.90
2018-10-02T00:47:08.132Z,9.90
2018-10-02T00:49:38.339Z,9.80
2018-10-02T00:52:07.740Z,9.80
2018-10-02T00:54:37.586Z,9.80
2018-10-02T00:57:06.259Z,9.80
2018-10-02T00:59:34.827Z,9.80
2018-10-02T01:02:03.190Z,9.80
2018-10-02T01:04:31.541Z,9.80
2018-10-02T01:07:00.156Z,9.80
2018-10-02T01:09:28.550Z,9.80
2018-10-02T01:11:57.023Z,9.80
2018-10-02T01:14:25.396Z,9.80
2018-10-02T01:16:54.896Z,9.80
2018-10-02T01:19:24.124Z,9.90
2018-10-02T01:21:53.779Z,9.80
2018-10-02T01:24:22.452Z,9.80
2018-10-02T01:26:52.664Z,9.90
2018-10-02T01:29:21.023Z,9.90
2018-10-02T01:31:49.454Z,9.90
2018-10-02T01:34:17.884Z,10.00
2018-10-02T01:36:46.263Z,10.00
2018-10-02T01:39:14.630Z,10.10
2018-10-02T01:41:43.276Z,10.10
2018-10-02T01:44:11.614Z,10.10
2018-10-02T01:46:39.982Z,9.90
2018-10-02T01:49:08.420Z,10.20
2018-10-02T01:51:36.739Z,10.20
2018-10-02T01:54:05.199Z,10.20
2018-10-02T01:56:33.547Z,10.20
2018-10-02T01:59:02.569Z,10.20
2018-10-02T02:01:31.019Z,10.20
2018-10-02T02:03:59.366Z,10.20
2018-10-02T02:06:27.745Z,10.30
2018-10-02T02:08:56.218Z,10.20
2018-10-02T02:11:24.590Z,10.20
2018-10-02T02:13:52.994Z,10.20
2018-10-02T02:17:40.595Z,10.20
2018-10-02T02:20:09.131Z,10.10
2018-10-02T02:22:37.494Z,9.90
2018-10-02T02:25:05.892Z,9.90
2018-10-02T02:27:34.272Z,9.90
2018-10-02T02:30:02.612Z,9.90
2018-10-02T02:32:31.010Z,9.90
2018-10-02T02:34:59.427Z,9.90
2018-10-02T02:37:27.801Z,9.80
2018-10-02T02:39:56.121Z,9.80
2018-10-02T02:42:24.526Z,9.80
2018-10-02T02:44:52.886Z,9.80
2018-10-02T02:47:26.495Z,9.80
2018-10-02T02:50:00.231Z,9.80
2018-10-02T02:52:32.290Z,9.80
2018-10-02T02:55:00.805Z,9.80
2018-10-02T02:57:29.561Z,9.80
2018-10-02T02:59:58.416Z,9.80
2018-10-02T03:02:27.101Z,9.80
2018-10-02T03:04:55.963Z,9.80
2018-10-02T03:07:24.345Z,9.90
2018-10-02T03:09:52.762Z,9.80
2018-10-02T03:12:21.131Z,9.90
2018-10-02T03:14:49.510Z,9.80
2018-10-02T03:17:17.931Z,9.90
2018-10-02T03:19:47.961Z,9.90
2018-10-02T03:22:16.727Z,9.90
2018-10-02T03:24:47.963Z,9.90
2018-10-02T03:27:16.348Z,10.00
2018-10-02T03:29:44.699Z,9.90
2018-10-02T03:32:13.052Z,9.90
2018-10-02T03:34:41.439Z,10.00
2018-10-02T03:37:09.831Z,10.00
2018-10-02T03:39:38.290Z,10.00
2018-10-02T03:42:06.721Z,10.00
2018-10-02T03:44:35.153Z,9.90
2018-10-02T03:47:03.672Z,10.00
2018-10-02T03:49:32.011Z,9.90
2018-10-02T03:52:00.395Z,9.90
2018-10-02T03:54:29.011Z,9.90
2018-10-02T03:56:57.828Z,9.90
2018-10-02T03:59:26.155Z,9.90
2018-10-02T04:01:54.747Z,9.90
2018-10-02T04:04:23.121Z,9.90
2018-10-02T04:06:51.499Z,9.90
2018-10-02T04:09:19.928Z,9.90
2018-10-02T04:11:49.129Z,9.90
2018-10-02T04:14:17.591Z,9.90
2018-10-02T04:16:46.058Z,9.90
2018-10-02T04:19:14.440Z,9.90
2018-10-02T04:21:42.785Z,10.00
2018-10-02T04:24:11.165Z,10.00
2018-10-02T04:26:39.577Z,10.00
2018-10-02T04:29:08.367Z,10.00
2018-10-02T04:31:37.883Z,10.00
2018-10-02T04:34:06.331Z,10.00
2018-10-02T04:36:34.633Z,10.00
2018-10-02T04:39:04.467Z,10.00
2018-10-02T04:41:32.921Z,9.90
2018-10-02T04:44:01.281Z,10.00
2018-10-02T04:46:29.634Z,10.00
2018-10-02T04:48:58.011Z,10.00
2018-10-02T04:51:26.372Z,10.00
2018-10-02T04:53:54.703Z,10.00
2018-10-02T04:56:23.117Z,10.00
2018-10-02T04:58:51.884Z,9.90
2018-10-02T05:01:20.264Z,9.90
2018-10-02T05:03:49.020Z,9.90
2018-10-02T05:06:17.466Z,10.00
2018-10-02T05:08:45.846Z,10.00
2018-10-02T05:11:14.148Z,10.00
2018-10-02T05:13:42.495Z,10.10
2018-10-02T05:16:10.875Z,10.10
2018-10-02T05:18:39.294Z,10.10
2018-10-02T05:21:07.671Z,10.20
2018-10-02T05:23:36.083Z,10.10
2018-10-02T05:26:04.486Z,10.10
2018-10-02T05:28:32.843Z,10.10
2018-10-02T05:31:01.215Z,10.10
2018-10-02T05:33:29.586Z,10.10
2018-10-02T05:35:58.087Z,10.00
2018-10-02T05:38:26.461Z,10.00
2018-10-02T05:40:54.872Z,9.90
2018-10-02T05:43:23.231Z,10.00
2018-10-02T05:45:51.631Z,10.00
2018-10-02T05:48:19.978Z,10.00
2018-10-02T05:50:48.336Z,10.00
2018-10-02T05:53:16.683Z,9.90
2018-10-02T05:55:45.115Z,9.90
2018-10-02T05:58:13.523Z,9.90
2018-10-02T06:00:42.120Z,9.90
2018-10-02T06:05:47.406Z,9.90
2018-10-02T06:08:15.766Z,9.80
2018-10-02T06:10:44.188Z,9.80
2018-10-02T06:13:12.620Z,9.80
2018-10-02T06:15:40.967Z,9.80
2018-10-02T06:18:09.373Z,9.80
2018-10-02T06:20:37.758Z,9.80
2018-10-02T06:23:06.219Z,9.80
2018-10-02T06:25:34.559Z,9.80
2018-10-02T06:28:02.911Z,9.80
2018-10-02T06:30:31.352Z,9.80
2018-10-02T06:32:59.706Z,9.80
2018-10-02T06:35:28.108Z,9.90
2018-10-02T06:37:56.828Z,9.80
2018-10-02T06:40:25.378Z,9.80
2018-10-02T06:42:53.719Z,9.80
2018-10-02T06:45:22.109Z,9.70
2018-10-02T06:47:50.802Z,9.70
2018-10-02T06:50:19.291Z,9.70
2018-10-02T06:52:47.826Z,9.70
2018-10-02T06:55:16.017Z,9.70
2018-10-02T06:57:44.427Z,9.70
2018-10-02T07:00:12.948Z,9.70
2018-10-02T07:02:41.406Z,9.70
2018-10-02T07:05:09.740Z,9.70
2018-10-02T07:07:38.484Z,9.70
2018-10-02T07:10:07.583Z,9.70
2018-10-02T07:12:36.107Z,9.70
2018-10-02T07:15:04.557Z,9.80
2018-10-02T07:17:32.952Z,9.80
2018-10-02T07:20:01.430Z,9.80
2018-10-02T07:22:29.827Z,9.80
2018-10-02T07:24:58.157Z,9.80
2018-10-02T07:27:26.844Z,9.80
2018-10-02T07:29:54.989Z,9.80
2018-10-02T07:32:23.389Z,9.90
2018-10-02T07:34:51.746Z,9.90
2018-10-02T07:37:20.269Z,9.80
2018-10-02T07:39:49.132Z,9.80
2018-10-02T07:42:17.525Z,9.70
2018-10-02T07:44:45.874Z,9.80
2018-10-02T07:47:14.318Z,9.70
2018-10-02T07:49:43.112Z,9.80
2018-10-02T07:52:12.188Z,9.80
2018-10-02T07:54:40.571Z,9.80
2018-10-02T07:57:09.026Z,9.80
2018-10-02T07:59:37.393Z,9.80
2018-10-02T08:02:05.831Z,9.90
2018-10-02T08:04:34.395Z,9.90
2018-10-02T08:07:02.763Z,9.90
2018-10-02T08:09:31.304Z,9.90
2018-10-02T08:11:59.774Z,9.80
2018-10-02T08:14:28.153Z,9.80
2018-10-02T08:16:56.577Z,9.80
2018-10-02T08:19:25.038Z,9.80
2018-10-02T08:21:53.488Z,9.80
2018-10-02T08:24:21.879Z,9.80
2018-10-02T08:26:50.530Z,9.80
2018-10-02T08:29:19.025Z,9.80
2018-10-02T08:31:47.464Z,9.80
2018-10-02T08:34:15.869Z,9.80
2018-10-02T08:36:44.338Z,9.80
2018-10-02T08:39:12.742Z,9.80
2018-10-02T08:41:41.447Z,9.80
2018-10-02T08:44:10.148Z,9.90
2018-10-02T08:46:38.590Z,9.60
2018-10-02T08:49:07.094Z,10.00
2018-10-02T08:51:35.516Z,10.00
2018-10-02T08:54:04.071Z,10.00
2018-10-02T08:56:34.922Z,10.10
2018-10-02T08:59:04.699Z,10.00
2018-10-02T09:01:36.085Z,10.00
2018-10-02T09:04:06.208Z,9.90
2018-10-02T09:06:35.595Z,9.90
2018-10-02T09:09:09.070Z,9.90
2018-10-02T09:11:37.667Z,9.90
2018-10-02T09:14:06.247Z,9.90
2018-10-02T09:16:34.740Z,9.80
2018-10-02T09:19:03.338Z,9.80
2018-10-02T09:21:31.913Z,9.80
2018-10-02T09:24:00.357Z,9.80
2018-10-02T09:26:28.663Z,9.80
2018-10-02T09:28:57.080Z,9.80
2018-10-02T09:31:30.820Z,9.90
2018-10-02T09:34:04.590Z,9.80
2018-10-02T09:36:38.614Z,9.90
2018-10-02T09:39:13.911Z,9.80
2018-10-02T09:41:47.943Z,9.70
2018-10-02T09:44:16.906Z,9.80
2018-10-02T09:46:45.471Z,9.90
2018-10-02T09:49:13.872Z,9.90
2018-10-02T09:51:42.445Z,9.90
2018-10-02T09:54:10.943Z,9.90
2018-10-02T09:56:44.704Z,10.00
2018-10-02T09:59:14.440Z,10.10
2018-10-02T10:01:48.544Z,10.10
2018-10-02T10:04:17.486Z,10.10
2018-10-02T10:06:45.997Z,10.10
2018-10-02T10:09:14.600Z,10.20
2018-10-02T10:11:44.740Z,10.20
2018-10-02T10:14:13.176Z,10.20
2018-10-02T10:16:41.728Z,10.30
2018-10-02T10:19:10.134Z,10.30
2018-10-02T10:21:38.589Z,10.30
2018-10-02T10:24:07.937Z,10.30
2018-10-02T10:26:36.455Z,10.30
2018-10-02T10:29:05.075Z,10.30
2018-10-02T10:31:33.561Z,10.30
2018-10-02T10:34:01.971Z,10.30
2018-10-02T10:36:30.455Z,10.30
2018-10-02T10:38:59.124Z,10.30
2018-10-02T10:41:27.544Z,10.20
2018-10-02T10:43:56.018Z,10.20
2018-10-02T10:46:24.734Z,10.30
2018-10-02T10:48:53.124Z,10.30
2018-10-02T10:51:22.328Z,10.30
2018-10-02T10:53:50.979Z,10.30
2018-10-02T10:56:19.464Z,10.30
2018-10-02T10:58:47.956Z,10.30
2018-10-02T11:01:16.798Z,10.40
2018-10-02T11:03:45.308Z,10.40
2018-10-02T11:06:14.395Z,10.40
2018-10-02T11:08:42.811Z,10.40
2018-10-02T11:11:11.327Z,10.40
2018-10-02T11:13:39.855Z,10.40
2018-10-02T11:16:08.326Z,10.30
2018-10-02T11:18:36.744Z,10.40
2018-10-02T11:21:05.232Z,10.40
2018-10-02T11:23:33.707Z,10.40
2018-10-02T11:26:02.144Z,10.40
2018-10-02T11:28:30.622Z,10.40
2018-10-02T11:30:59.156Z,10.50
2018-10-02T11:33:27.664Z,10.50
2018-10-02T11:35:56.116Z,10.50
2018-10-02T11:38:24.600Z,10.60
2018-10-02T11:40:53.038Z,10.60
2018-10-02T11:43:21.553Z,10.60
2018-10-02T11:45:49.903Z,10.60
2018-10-02T11:48:18.265Z,10.70
2018-10-02T11:50:46.735Z,10.70
2018-10-02T11:53:15.094Z,10.70
2018-10-02T11:55:43.595Z,10.60
2018-10-02T11:58:12.056Z,10.70
2018-10-02T12:00:40.561Z,10.70
2018-10-02T12:03:08.870Z,10.80
2018-10-02T12:05:37.287Z,10.70
2018-10-02T12:08:06.135Z,10.80
2018-10-02T12:10:34.536Z,10.80
2018-10-02T12:13:03.019Z,10.80
2018-10-02T12:15:31.882Z,10.90
2018-10-02T12:18:00.451Z,10.90
2018-10-02T12:20:28.844Z,11.00
2018-10-02T12:22:57.805Z,11.00
2018-10-02T12:25:26.265Z,11.00
2018-10-02T12:27:54.980Z,11.00
2018-10-02T12:30:23.383Z,11.10
2018-10-02T12:32:51.765Z,11.20
2018-10-02T12:35:20.207Z,11.20
2018-10-02T12:37:48.796Z,11.20
2018-10-02T12:40:17.163Z,11.20
2018-10-02T12:42:45.657Z,11.20
2018-10-02T12:45:14.063Z,11.20
2018-10-02T12:47:42.491Z,11.30
2018-10-02T12:50:10.932Z,11.40
2018-10-02T12:52:39.472Z,11.40
2018-10-02T12:55:07.747Z,11.40
2018-10-02T12:57:36.159Z,11.50
2018-10-02T13:00:05.228Z,11.50
2018-10-02T13:02:37.325Z,11.60
2018-10-02T13:05:05.795Z,11.60
2018-10-02T13:07:34.795Z,11.70
2018-10-02T13:10:03.826Z,11.70
2018-10-02T13:12:32.211Z,11.80
2018-10-02T13:15:00.724Z,11.80
2018-10-02T13:17:29.188Z,11.80
2018-10-02T13:19:57.669Z,11.90
2018-10-02T13:22:26.087Z,11.90
2018-10-02T13:24:54.487Z,11.90
2018-10-02T13:27:22.966Z,11.90
2018-10-02T13:29:51.404Z,11.90
2018-10-02T13:32:19.873Z,12.00
2018-10-02T13:34:48.336Z,12.00
2018-10-02T13:37:16.777Z,12.00
2018-10-02T13:39:45.255Z,12.00
2018-10-02T13:42:13.761Z,12.10
2018-10-02T13:44:42.211Z,12.10
2018-10-02T13:47:10.642Z,12.20
2018-10-02T13:49:39.083Z,12.20
2018-10-02T13:52:07.614Z,12.20
2018-10-02T13:54:35.987Z,12.30
2018-10-02T13:57:04.427Z,12.30
2018-10-02T13:59:33.254Z,12.40
2018-10-02T14:02:01.743Z,12.50
2018-10-02T14:04:30.366Z,12.50
2018-10-02T14:06:58.760Z,12.60
2018-10-02T14:09:27.378Z,12.60
2018-10-02T14:11:55.760Z,12.60
2018-10-02T14:14:24.223Z,12.70
2018-10-02T14:16:54.202Z,12.70
2018-10-02T14:19:23.380Z,12.80
2018-10-02T14:21:52.595Z,12.80
2018-10-02T14:24:22.011Z,12.80
2018-10-02T14:26:51.858Z,12.80
2018-10-02T14:29:20.525Z,12.80
2018-10-02T14:31:50.426Z,12.90
2018-10-02T14:34:18.878Z,12.90
2018-10-02T14:36:47.927Z,12.90
2018-10-02T14:39:16.295Z,12.90
2018-10-02T14:41:44.742Z,13.00
2018-10-02T14:44:13.174Z,13.00
2018-10-02T14:46:41.583Z,13.10
2018-10-02T14:49:10.862Z,13.20
2018-10-02T14:51:39.363Z,13.20
2018-10-02T14:54:07.800Z,13.30
2018-10-02T14:56:36.199Z,13.40
2018-10-02T14:59:04.667Z,13.50
2018-10-02T15:01:33.100Z,13.40
2018-10-02T15:04:02.313Z,13.50
2018-10-02T15:06:30.810Z,13.60
2018-10-02T15:08:59.501Z,13.60
2018-10-02T15:11:27.954Z,13.70
2018-10-02T15:13:56.996Z,13.70
2018-10-02T15:16:26.659Z,13.80
2018-10-02T15:18:56.577Z,13.80
2018-10-02T15:21:26.571Z,13.90
2018-10-02T15:23:55.421Z,13.90
2018-10-02T15:26:24.755Z,13.90
2018-10-02T15:28:54.520Z,14.00
2018-10-02T15:31:23.236Z,14.00
2018-10-02T15:33:52.083Z,13.90
2018-10-02T15:36:20.634Z,14.00
2018-10-02T15:38:49.327Z,14.00
2018-10-02T15:41:17.976Z,14.00
2018-10-02T15:43:46.913Z,14.10
2018-10-02T15:46:15.323Z,14.10
2018-10-02T15:48:44.545Z,14.10
2018-10-02T15:51:13.231Z,14.10
2018-10-02T15:53:41.665Z,14.20
2018-10-02T15:56:10.062Z,14.30
2018-10-02T15:58:38.442Z,14.20
2018-10-02T16:01:07.246Z,14.30
2018-10-02T16:03:35.713Z,14.40
2018-10-02T16:06:04.082Z,14.40
2018-10-02T16:08:32.891Z,14.50
2018-10-02T16:11:01.255Z,14.60
2018-10-02T16:13:30.066Z,14.70
2018-10-02T16:15:58.571Z,14.80
2018-10-02T16:18:27.144Z,14.80
2018-10-02T16:20:55.539Z,14.90
2018-10-02T16:23:23.995Z,14.90
2018-10-02T16:25:52.380Z,14.90
2018-10-02T16:28:22.144Z,14.90
2018-10-02T16:30:51.308Z,14.80
2018-10-02T16:33:19.728Z,14.80
2018-10-02T16:35:48.259Z,14.80
2018-10-02T16:38:17.595Z,14.70
2018-10-02T16:40:46.393Z,14.70
2018-10-02T16:43:15.464Z,14.60
2018-10-02T16:45:45.502Z,14.50
2018-10-02T16:48:13.943Z,14.50
2018-10-02T16:50:49.701Z,14.50
2018-10-02T16:53:18.312Z,14.50
2018-10-02T16:55:46.852Z,14.50
2018-10-02T16:58:15.212Z,14.50
2018-10-02T17:00:44.321Z,14.50
2018-10-02T17:03:13.342Z,14.40
2018-10-02T17:05:42.440Z,14.40
2018-10-02T17:08:11.135Z,14.40
2018-10-02T17:10:40.123Z,14.30
2018-10-02T17:13:08.520Z,14.30
2018-10-02T17:15:36.879Z,14.30
2018-10-02T17:18:05.554Z,14.20
2018-10-02T17:20:34.713Z,14.20
2018-10-02T17:23:03.143Z,14.20
2018-10-02T17:25:31.748Z,14.10
2018-10-02T17:28:00.199Z,14.10
2018-10-02T17:30:28.806Z,14.10
2018-10-02T17:32:57.193Z,14.10
2018-10-02T17:35:25.568Z,14.10
2018-10-02T17:37:54.066Z,14.00
2018-10-02T17:40:22.531Z,14.00
2018-10-02T17:42:50.932Z,14.00
2018-10-02T17:45:19.553Z,14.00
2018-10-02T17:47:48.180Z,14.00
2018-10-02T17:50:16.615Z,14.00
2018-10-02T17:52:45.128Z,14.00
2018-10-02T17:55:13.597Z,13.90
2018-10-02T17:57:42.607Z,13.90
2018-10-02T18:00:11.099Z,13.90
2018-10-02T18:02:39.567Z,13.90
2018-10-02T18:05:07.967Z,13.90
2018-10-02T18:07:36.475Z,13.90
2018-10-02T18:10:04.938Z,13.80
2018-10-02T18:12:34.017Z,13.80
2018-10-02T18:15:02.422Z,13.70
2018-10-02T18:17:31.617Z,13.80
2018-10-02T18:19:59.992Z,13.70
2018-10-02T18:22:28.508Z,13.70
2018-10-02T18:24:56.897Z,13.70
2018-10-02T18:27:25.333Z,13.70
2018-10-02T18:29:53.707Z,13.70
2018-10-02T18:32:22.058Z,13.70
2018-10-02T18:34:50.719Z,13.70
2018-10-02T18:37:19.156Z,13.70
2018-10-02T18:39:47.549Z,13.70
2018-10-02T18:42:15.931Z,13.70
2018-10-02T18:44:44.287Z,13.70
2018-10-02T18:47:12.828Z,13.70
2018-10-02T18:49:41.257Z,13.70
2018-10-02T18:52:09.817Z,13.70
2018-10-02T18:54:38.239Z,13.70
2018-10-02T18:57:06.812Z,13.70
2018-10-02T18:59:35.571Z,13.60
2018-10-02T19:02:04.941Z,13.60
2018-10-02T19:04:33.327Z,13.50
2018-10-02T19:07:01.839Z,13.50
2018-10-02T19:09:30.328Z,13.50
2018-10-02T19:12:04.207Z,13.50
2018-10-02T19:14:32.682Z,13.40
2018-10-02T19:17:01.220Z,13.40
2018-10-02T19:19:35.205Z,13.40
2018-10-02T19:22:03.778Z,13.30
2018-10-02T19:24:32.339Z,13.20
2018-10-02T19:27:00.963Z,13.20
2018-10-02T19:29:29.467Z,13.20
2018-10-02T19:32:16.728Z,13.20
2018-10-02T19:34:45.487Z,13.20
2018-10-02T19:37:19.384Z,13.10
2018-10-02T19:39:48.152Z,13.10
2018-10-02T19:42:16.663Z,13.10
2018-10-02T19:44:45.212Z,13.00
2018-10-02T19:47:14.132Z,13.00
2018-10-02T19:49:42.614Z,13.00
2018-10-02T19:52:14.383Z,13.00
2018-10-02T19:54:43.214Z,13.00
2018-10-02T19:57:17.117Z,12.90
2018-10-02T19:59:45.659Z,12.90
2018-10-02T20:02:14.176Z,12.90
2018-10-02T20:04:42.616Z,12.90
2018-10-02T20:07:11.158Z,12.90
2018-10-02T20:09:39.709Z,12.90
2018-10-02T20:12:08.335Z,12.80
2018-10-02T20:14:36.730Z,12.80
2018-10-02T20:17:05.224Z,12.80
2018-10-02T20:19:33.688Z,12.80
2018-10-02T20:22:02.348Z,12.80
2018-10-02T20:24:30.877Z,12.80
2018-10-02T20:26:59.382Z,12.80
2018-10-02T20:29:27.869Z,12.80
2018-10-02T20:31:57.368Z,12.80
2018-10-02T20:34:25.792Z,12.90
2018-10-02T20:36:54.263Z,12.90
2018-10-02T20:39:22.724Z,12.90
2018-10-02T20:41:51.176Z,13.00
2018-10-02T20:44:19.574Z,13.00
2018-10-02T20:46:48.018Z,13.00
2018-10-02T20:49:16.533Z,12.90
2018-10-02T20:51:44.992Z,13.00
2018-10-02T20:54:13.428Z,13.00
2018-10-02T20:56:41.852Z,13.00
2018-10-02T20:59:10.260Z,13.00
2018-10-02T21:01:38.683Z,13.00
2018-10-02T21:04:08.311Z,13.00
2018-10-02T21:06:36.994Z,13.00
2018-10-02T21:09:07.150Z,13.00
2018-10-02T21:11:35.581Z,13.00
2018-10-02T21:14:04.206Z,12.90
2018-10-02T21:16:33.615Z,13.00
2018-10-02T21:19:02.309Z,13.00
2018-10-02T21:21:30.840Z,13.00
2018-10-02T21:24:02.123Z,13.00
2018-10-02T21:26:33.025Z,13.00
2018-10-02T21:29:01.510Z,12.90
2018-10-02T21:31:30.043Z,13.00
2018-10-02T21:33:58.442Z,13.00
2018-10-02T21:36:26.885Z,13.00
2018-10-02T21:38:55.667Z,13.00
2018-10-02T21:41:24.095Z,13.10
2018-10-02T21:43:52.510Z,13.00
2018-10-02T21:46:21.418Z,13.10
2018-10-02T21:48:49.820Z,13.00
2018-10-02T21:51:18.281Z,13.00
2018-10-02T21:53:46.675Z,13.00
2018-10-02T21:56:15.199Z,13.00
2018-10-02T21:58:43.764Z,13.10
2018-10-02T22:01:12.169Z,13.00
2018-10-02T22:03:40.808Z,13.00
2018-10-02T22:06:09.261Z,12.90
2018-10-02T22:08:37.694Z,12.90
2018-10-02T22:11:06.133Z,12.90
2018-10-02T22:13:34.538Z,12.90
2018-10-02T22:16:03.561Z,12.90
2018-10-02T22:18:31.970Z,12.90
2018-10-02T22:21:00.362Z,12.90
2018-10-02T22:23:28.799Z,12.90
2018-10-02T22:25:57.216Z,12.90
2018-10-02T22:28:25.717Z,12.90
2018-10-02T22:30:54.128Z,12.90
2018-10-02T22:33:22.505Z,12.90
2018-10-02T22:35:50.824Z,12.80
2018-10-02T22:38:19.280Z,12.80
2018-10-02T22:40:47.634Z,12.80
2018-10-02T22:43:16.046Z,12.70
2018-10-02T22:45:44.395Z,12.70
2018-10-02T22:48:12.779Z,12.70
2018-10-02T22:50:41.135Z,12.70
2018-10-02T22:53:09.725Z,12.70
2018-10-02T22:55:38.102Z,12.70
2018-10-02T22:58:06.972Z,12.70
2018-10-02T23:00:35.567Z,12.70
2018-10-02T23:03:03.982Z,12.70
2018-10-02T23:05:32.474Z,12.70
2018-10-02T23:08:00.899Z,12.70
2018-10-02T23:10:29.294Z,12.70
2018-10-02T23:12:57.676Z,12.60
2018-10-02T23:15:26.043Z,12.60
2018-10-02T23:17:54.487Z,12.60
2018-10-02T23:20:22.915Z,12.50
2018-10-02T23:22:51.306Z,12.50
2018-10-02T23:25:19.698Z,12.50
2018-10-02T23:27:48.266Z,12.50
2018-10-02T23:30:16.643Z,12.50
2018-10-02T23:32:45.035Z,12.50
2018-10-02T23:35:13.395Z,12.60
2018-10-02T23:37:41.854Z,12.50
2018-10-02T23:40:10.235Z,12.50
2018-10-02T23:42:38.608Z,12.50
2018-10-02T23:45:07.208Z,12.50
2018-10-02T23:47:35.586Z,12.50
2018-10-02T23:50:04.058Z,12.50
2018-10-02T23:52:32.771Z,12.50
2018-10-02T23:55:01.181Z,12.50
2018-10-02T23:57:30.180Z,12.50
2018-10-02T23:59:58.585Z,12.50
